Allston, Massachusetts
Current Conditions -  °F | °C
As of 5:54 PM on Friday 31 Oct 2014 (Local Time) from KBOS Reporting Station
Overcast Overcast  
Wind Chill: 50°   Ceiling: 6500
Heat Index: 50°   Visibility: 10mi
Dew Point: 37°   Wind: 14mph
Humidity: 61%   Direction: 70°ENE
Pressure: 29.99"   Gusts: NA
Location:  42.36°N, 71.13°W
Report Text: KBOS 312154Z 07012KT 10SM FEW031 BKN065 OVC250 10/03 A2999 RMK AO2 SLP156 T01000028
Loading
Personal Weather Stations






























Interactive Weather Map
Tropical Storm Tracking
New forecast layout! Learn more

10-Day Weather Forecast

Advertisements
Track Severe Weather on mobile